Clermont, New Jersey
Current Conditions -  °F | °C
As of 5:15 AM on Saturday 22 Nov 2014 (Local Time) from KWWD Reporting Station
Clear Clear  
Wind Chill: 21°   Ceiling: Unl
Heat Index: 21°   Visibility: 10mi
Dew Point: 12°   Wind: 0mph
Humidity: 68%   Direction: NA
Pressure: 30.54"   Gusts: NA
Location:  39.1108°N, 74.8241°W
Report Text: KWWD 221015Z AUTO 00000KT 10SM CLR M06/M11 A3054 RMK AO1
Loading
Personal Weather Stations






























Interactive Weather Map New forecast layout! Learn more

10-Day Weather Forecast

Advertisements
Track Severe Weather on mobile